createdAt,value
2023-03-21T00:03:09.975Z,59.40
2023-03-21T00:08:13.373Z,59.60
2023-03-21T00:13:19.211Z,59.50
2023-03-21T00:18:25.856Z,59.60
2023-03-21T00:23:29.418Z,59.60
2023-03-21T00:28:32.813Z,59.60
2023-03-21T00:33:39.213Z,59.60
2023-03-21T00:38:42.591Z,59.70
2023-03-21T00:43:46.306Z,59.50
2023-03-21T00:48:51.058Z,59.70
2023-03-21T00:53:58.788Z,59.80
2023-03-21T00:59:04.523Z,60.00
2023-03-21T01:04:13.718Z,59.80
2023-03-21T01:09:19.799Z,59.90
2023-03-21T01:14:24.768Z,60.00
2023-03-21T01:19:48.711Z,60.00
2023-03-21T01:25:00.557Z,60.00
2023-03-21T01:30:19.052Z,59.90
2023-03-21T01:35:25.040Z,59.90
2023-03-21T01:40:29.522Z,60.10
2023-03-21T01:46:22.566Z,60.00
2023-03-21T01:51:52.559Z,60.50
2023-03-21T01:57:01.100Z,60.20
2023-03-21T02:02:07.429Z,60.10
2023-03-21T02:07:25.896Z,60.10
2023-03-21T02:12:33.255Z,60.30
2023-03-21T02:17:44.630Z,60.00
2023-03-21T02:23:25.490Z,60.10
2023-03-21T02:28:34.168Z,60.40
2023-03-21T02:34:14.348Z,60.10
2023-03-21T02:39:26.714Z,60.50
2023-03-21T02:44:37.962Z,60.40
2023-03-21T02:49:48.088Z,60.10
2023-03-21T02:54:53.787Z,60.20
2023-03-21T03:00:10.601Z,60.10
2023-03-21T03:05:21.563Z,60.00
2023-03-21T03:10:38.194Z,60.00
2023-03-21T03:15:51.871Z,60.30
2023-03-21T03:21:04.615Z,60.10
2023-03-21T03:26:13.547Z,60.10
2023-03-21T03:31:26.194Z,59.90
2023-03-21T03:36:39.043Z,60.00
2023-03-21T03:42:10.058Z,60.10
2023-03-21T03:47:33.482Z,60.30
2023-03-21T03:52:55.803Z,60.40
2023-03-21T03:58:06.450Z,60.40
2023-03-21T04:03:14.776Z,60.30
2023-03-21T04:08:18.668Z,60.20
2023-03-21T04:13:29.536Z,60.10
2023-03-21T04:18:58.877Z,60.30
2023-03-21T04:24:02.357Z,60.10
2023-03-21T04:29:08.487Z,60.10
2023-03-21T04:34:40.443Z,60.30
2023-03-21T04:39:46.423Z,60.10
2023-03-21T04:44:51.390Z,60.90
2023-03-21T04:49:54.922Z,60.30
2023-03-21T04:54:58.412Z,60.10
2023-03-21T05:00:04.589Z,60.10
2023-03-21T05:05:11.337Z,60.10
2023-03-21T05:10:14.834Z,60.10
2023-03-21T05:15:19.855Z,60.30
2023-03-21T05:20:23.310Z,60.20
2023-03-21T05:25:35.600Z,60.20
2023-03-21T05:31:03.328Z,60.30
2023-03-21T05:36:07.630Z,62.20
2023-03-21T05:41:11.345Z,65.20
2023-03-21T05:46:16.686Z,65.20
2023-03-21T05:51:20.151Z,66.90
2023-03-21T05:56:23.616Z,66.30
2023-03-21T06:01:33.579Z,66.70
2023-03-21T06:06:51.680Z,67.40
2023-03-21T06:11:57.102Z,66.80
2023-03-21T06:17:08.799Z,65.70
2023-03-21T06:22:19.156Z,66.30
2023-03-21T06:27:22.871Z,66.10
2023-03-21T06:32:37.239Z,66.00
2023-03-21T06:37:49.366Z,65.90
2023-03-21T06:42:53.518Z,65.10
2023-03-21T06:47:58.364Z,63.70
2023-03-21T06:53:20.764Z,62.30
2023-03-21T06:58:51.247Z,61.50
2023-03-21T07:04:12.536Z,60.90
2023-03-21T07:09:17.958Z,60.40
2023-03-21T07:14:23.937Z,60.10
2023-03-21T07:19:32.579Z,59.90
2023-03-21T07:24:36.011Z,59.90
2023-03-21T07:29:39.647Z,59.70
2023-03-21T07:34:44.396Z,59.90
2023-03-21T07:39:47.830Z,60.00
2023-03-21T07:44:52.835Z,60.00
2023-03-21T07:49:57.562Z,61.60
2023-03-21T07:55:00.966Z,62.60
2023-03-21T08:00:04.988Z,63.30
2023-03-21T08:05:19.519Z,63.50
2023-03-21T08:10:22.943Z,62.80
2023-03-21T08:15:26.260Z,63.00
2023-03-21T08:20:31.023Z,62.70
2023-03-21T08:25:34.518Z,63.50
2023-03-21T08:30:39.478Z,63.40
2023-03-21T08:35:44.935Z,63.50
2023-03-21T08:40:48.421Z,62.20
2023-03-21T08:45:51.762Z,62.30
2023-03-21T08:50:56.627Z,62.10
2023-03-21T08:56:00.059Z,61.40
2023-03-21T09:01:03.380Z,61.10
2023-03-21T09:06:10.782Z,61.00
2023-03-21T09:11:14.282Z,60.60
2023-03-21T09:16:17.675Z,60.00
2023-03-21T09:21:23.762Z,60.00
2023-03-21T09:26:28.186Z,59.70
2023-03-21T09:31:31.586Z,59.20
2023-03-21T09:36:37.581Z,59.00
2023-03-21T09:41:59.389Z,58.50
2023-03-21T09:47:08.204Z,57.60
2023-03-21T09:52:20.281Z,58.20
2023-03-21T09:57:31.242Z,58.20
2023-03-21T10:02:39.520Z,57.90
2023-03-21T10:07:48.879Z,58.50
2023-03-21T10:12:55.345Z,57.90
2023-03-21T10:18:02.527Z,58.00
2023-03-21T10:23:09.268Z,57.60
2023-03-21T10:28:18.054Z,56.90
2023-03-21T10:33:25.352Z,56.30
2023-03-21T10:38:31.335Z,56.50
2023-03-21T10:43:38.798Z,56.50
2023-03-21T10:48:47.133Z,56.40
2023-03-21T10:53:57.442Z,56.40
2023-03-21T10:59:03.068Z,56.40
2023-03-21T11:04:11.247Z,56.40
2023-03-21T11:09:19.791Z,56.00
2023-03-21T11:14:35.843Z,55.80
2023-03-21T11:19:39.219Z,55.50
2023-03-21T11:24:48.909Z,56.30
2023-03-21T11:29:53.102Z,55.50
2023-03-21T11:35:01.353Z,55.30
2023-03-21T11:40:21.802Z,54.30
2023-03-21T11:45:27.079Z,53.60
2023-03-21T11:50:34.346Z,54.40
2023-03-21T11:55:47.453Z,54.20
2023-03-21T12:01:01.228Z,53.40
2023-03-21T12:06:14.741Z,53.40
2023-03-21T12:11:25.530Z,53.70
2023-03-21T12:16:43.536Z,53.10
2023-03-21T12:22:00.258Z,53.00
2023-03-21T12:27:14.226Z,52.10
2023-03-21T12:32:27.580Z,51.80
2023-03-21T12:37:38.234Z,51.80
2023-03-21T12:43:02.151Z,52.20
2023-03-21T12:48:19.027Z,51.40
2023-03-21T12:53:36.208Z,51.00
2023-03-21T12:58:49.410Z,50.40
2023-03-21T13:04:07.203Z,50.20
2023-03-21T13:09:23.332Z,49.90
2023-03-21T13:14:41.568Z,49.60
2023-03-21T13:19:51.547Z,49.30
2023-03-21T13:25:00.875Z,48.90
2023-03-21T13:30:07.824Z,48.40
2023-03-21T13:35:17.835Z,48.50
2023-03-21T13:40:27.136Z,48.10
2023-03-21T13:45:34.229Z,47.90
2023-03-21T13:50:54.753Z,47.90
2023-03-21T13:56:34.860Z,47.80
2023-03-21T14:01:41.558Z,48.10
2023-03-21T14:06:51.056Z,48.20
2023-03-21T14:12:06.967Z,49.30
2023-03-21T14:17:16.813Z,49.00
2023-03-21T14:22:20.313Z,48.30
2023-03-21T14:27:23.905Z,48.90
2023-03-21T14:32:31.234Z,49.00
2023-03-21T14:37:39.834Z,48.90
2023-03-21T14:42:48.573Z,49.20
2023-03-21T14:48:03.906Z,49.00
2023-03-21T14:53:07.805Z,48.80
2023-03-21T14:58:14.194Z,49.20
2023-03-21T15:03:20.553Z,49.60
2023-03-21T15:08:26.058Z,49.50
2023-03-21T15:13:32.764Z,50.30
2023-03-21T15:18:39.688Z,50.30
2023-03-21T15:23:45.792Z,50.50
2023-03-21T15:28:51.481Z,50.30
2023-03-21T15:34:02.472Z,50.10
2023-03-21T15:39:09.634Z,49.80
2023-03-21T15:44:16.040Z,49.90
2023-03-21T15:49:27.242Z,50.00
2023-03-21T15:54:32.792Z,50.30
2023-03-21T15:59:39.986Z,50.30
2023-03-21T16:05:02.396Z,50.40
2023-03-21T16:10:06.554Z,50.00
2023-03-21T16:15:10.905Z,50.20
2023-03-21T16:20:21.460Z,50.20
2023-03-21T16:25:24.957Z,50.00
2023-03-21T16:30:28.252Z,50.20
2023-03-21T16:35:34.462Z,50.30
2023-03-21T16:40:41.012Z,51.00
2023-03-21T16:45:44.491Z,50.70
2023-03-21T16:50:49.898Z,50.60
2023-03-21T16:55:54.131Z,50.20
2023-03-21T17:00:57.718Z,51.00
2023-03-21T17:06:02.581Z,50.30
2023-03-21T17:11:08.528Z,50.20
2023-03-21T17:16:14.905Z,50.30
2023-03-21T17:21:27.500Z,50.20
2023-03-21T17:26:35.763Z,50.20
2023-03-21T17:31:40.955Z,50.40
2023-03-21T17:36:47.837Z,50.30
2023-03-21T17:41:53.102Z,50.20
2023-03-21T17:46:57.671Z,50.40
2023-03-21T17:52:02.565Z,50.30
2023-03-21T17:57:06.092Z,50.40
2023-03-21T18:02:09.991Z,50.40
2023-03-21T18:07:32.518Z,50.50
2023-03-21T18:12:41.589Z,50.50
2023-03-21T18:17:45.902Z,50.60
2023-03-21T18:22:52.231Z,50.70
2023-03-21T18:28:10.433Z,50.60
2023-03-21T18:33:16.924Z,50.70
2023-03-21T18:38:23.478Z,50.80
2023-03-21T18:48:57.214Z,50.80
2023-03-21T18:54:05.321Z,50.90
2023-03-21T18:59:12.395Z,51.00
2023-03-21T19:04:25.483Z,51.00
2023-03-21T19:09:55.438Z,51.10
2023-03-21T19:15:04.011Z,51.20
2023-03-21T19:20:10.528Z,51.40
2023-03-21T19:25:20.328Z,51.50
2023-03-21T19:30:25.121Z,51.60
2023-03-21T19:35:31.431Z,51.80
2023-03-21T19:40:42.154Z,52.10
2023-03-21T19:45:52.461Z,52.10
2023-03-21T19:51:26.735Z,52.40
2023-03-21T19:56:34.838Z,52.20
2023-03-21T20:01:44.120Z,52.30
2023-03-21T20:06:55.819Z,52.20
2023-03-21T20:12:08.466Z,52.20
2023-03-21T20:17:13.956Z,52.50
2023-03-21T20:22:35.964Z,52.30
2023-03-21T20:28:11.127Z,53.10
2023-03-21T20:33:17.497Z,52.50
2023-03-21T20:38:22.493Z,52.70
2023-03-21T20:44:20.424Z,52.80
2023-03-21T20:48:55.279Z,52.90
2023-03-21T20:54:03.269Z,53.00
2023-03-21T20:59:20.937Z,53.10
2023-03-21T21:04:52.836Z,53.30
2023-03-21T21:09:55.806Z,53.30
2023-03-21T21:15:02.389Z,53.40
2023-03-21T21:20:18.007Z,53.60
2023-03-21T21:25:22.962Z,53.80
2023-03-21T21:30:32.702Z,53.70
2023-03-21T21:35:36.921Z,53.80
2023-03-21T21:40:41.075Z,53.90
2023-03-21T21:45:46.482Z,54.00
2023-03-21T21:50:52.296Z,54.20
2023-03-21T21:55:57.028Z,54.10
2023-03-21T22:01:02.706Z,54.20
2023-03-21T22:06:06.538Z,54.40
2023-03-21T22:11:11.022Z,54.30
2023-03-21T22:16:15.899Z,54.40
2023-03-21T22:21:19.537Z,54.60
2023-03-21T22:26:22.949Z,54.60
2023-03-21T22:31:28.105Z,54.50
2023-03-21T22:36:31.786Z,54.70
2023-03-21T22:41:35.141Z,54.50
2023-03-21T22:46:39.956Z,54.70
2023-03-21T22:51:43.986Z,54.70
2023-03-21T22:56:47.668Z,54.80
2023-03-21T23:01:52.474Z,54.80
2023-03-21T23:06:56.382Z,54.80
2023-03-21T23:11:59.804Z,54.80
2023-03-21T23:17:04.656Z,54.90
2023-03-21T23:22:07.951Z,55.00
2023-03-21T23:27:11.261Z,55.00
2023-03-21T23:32:16.497Z,55.10
2023-03-21T23:37:19.828Z,55.10
2023-03-21T23:42:23.254Z,55.10
2023-03-21T23:47:28.145Z,55.20
2023-03-21T23:52:31.553Z,55.40
2023-03-21T23:57:34.968Z,55.30
